Logo AVAMET
Benvolgut visitant, si us plau, ingressa Recuperar contrasenya
AVAMET paisatges

Inforatge Catarroja Ajuntament

Dades diàries. Acumulats / Últims 30 dies disponibles

Data Temperatura (°C) Humitat rel. (%) Pressió rel. (hPa) Vent (km/h) Precipitació
Mínima Mitjana Màxima Amplitud
tèrmica
Mínima Mitjana Màxima Mínima Mitjana Màxima Predom. Mitjana Ràfega
màxima
Total
(mm)
Índex-n
Mínima Mitjana Màxima Mínima Mitjana Màxima n
0 a 1
P0 max
mm 5'
Dades mensuals acumulades fins l'últim dia disponible
10/2020 9,7 14,5 19,4 19,3 20,7 24,5 31,9 22,2 22 58 91 992 1.016 1.026   7,5 75,6 3,6
Dades anuals acumulades fins l'últim dia disponible
2020 2,6 15,8 26,2 19,8 8,4 24,0 35,2 32,6 18 70 97 992 1.018 1.035   6,2 90,1 330,2
Últims 30 dies disponibles
19-10-2020 14,2     17,9     21,7 7,5 63 77 86 1.020 1.021 1.023 WNW 4,5 25,7 0,0
18-10-2020 11,7     16,8     22,2 10,5 52 71 84 1.020 1.021 1.023 WNW 4,8 19,3 0,0
17-10-2020 11,3     16,3     22,0 10,7 37 61 77 1.016 1.018 1.020 WNW 5,8 27,4 0,0
16-10-2020 9,7     15,3     20,8 11,1 28 50 69 1.016 1.018 1.020 WSW 5,3 30,6 0,0
15-10-2020 11,8     17,2     22,4 10,6 27 44 71 1.014 1.015 1.018 WNW 6,0 30,6 0,0
14-10-2020 14,6     18,2     20,7 6,1 57 68 77 1.009 1.011 1.014 E 3,7 22,5 1,6 0,21 0,40
13-10-2020 14,1     20,7     28,6 14,5 29 47 70 1.010 1.015 1.020 WSW 6,1 32,2 0,0
12-10-2020 13,6     18,1     22,9 9,3 28 44 59 1.019 1.021 1.023 WNW 6,9 37,0 0,0
11-10-2020 17,3     19,7     22,4 5,1 29 48 84 1.020 1.022 1.023 WNW 7,6 41,8 0,0
10-10-2020 19,4     21,5     24,4 5,0 69 80 86 1.021 1.022 1.024 WNW 3,7 19,3 0,0
09-10-2020 17,1     21,2     24,7 7,6 66 81 90 1.021 1.022 1.024 E 4,7 22,5 0,0
08-10-2020 17,2     21,2     25,3 8,1 63 73 86 1.022 1.024 1.026 WNW 5,6 30,6 0,0
07-10-2020 18,2     23,1     29,8 11,6 34 56 72 1.020 1.021 1.024 WSW 4,5 25,7 0,0
06-10-2020 14,3     20,4     28,4 14,1 32 54 68 1.018 1.021 1.022 WSW 5,3 27,4 0,0
05-10-2020 15,8     19,4     24,3 8,5 29 53 66 1.012 1.016 1.021 W 8,9 35,4 0,0
04-10-2020 13,0     18,3     23,4 10,4 39 50 63 1.007 1.010 1.012 WSW 14,8 48,3 0,0
03-10-2020 12,3     17,3     22,9 10,6 33 47 62 1.002 1.006 1.011 WSW 15,1 51,5 0,0
02-10-2020 13,9     20,1     26,4 12,5 43 56 91 992 999 1.006 WSW 18,8 75,6 2,0 0,78 1,20
01-10-2020 16,4     24,1     31,9 15,5 22 50 89 1.005 1.009 1.014 WSW 10,9 46,7 0,0
30-09-2020 15,9     20,3     24,2 8,3 63 76 84 1.014 1.016 1.019 SSO 4,6 24,1 0,0
29-09-2020 15,5     20,0     24,4 8,9 52 65 79 1.017 1.019 1.021 WNW 5,8 19,3 0,0
28-09-2020 13,6     19,3     24,1 10,5 33 52 72 1.015 1.016 1.019 E 6,0 29,0 0,0
27-09-2020 17,4     21,2     24,3 6,9 22 45 62 1.009 1.012 1.015 W 9,5 35,4 0,0
26-09-2020 16,0     21,4     27,1 11,1 27 36 47 1.011 1.016 1.021 W 9,7 30,6 0,0
25-09-2020 19,9     23,2     26,5 6,6 23 40 64 1.014 1.016 1.021 W 13,2 43,5 0,0
24-09-2020 21,9     25,2     30,3 8,4 39 54 64 1.011 1.013 1.015 WSW 10,8 62,8 0,0
23-09-2020 20,3     24,7     31,3 11,0 37 62 87 1.011 1.012 1.014 WSW 6,1 32,2 0,0
22-09-2020 19,4     23,6     28,9 9,5 42 70 85 1.011 1.014 1.016 WNW 7,4 33,8 0,0
21-09-2020 19,9     24,2     28,2 8,3 45 64 78 1.015 1.016 1.017 WSW 6,1 30,6 0,0
20-09-2020 20,4     25,2     30,8 10,4 34 54 73 1.014 1.016 1.018 WSW 11,4 33,8 0,0
Últims 13 mesos disponibles
09/2020 13,6 19,4 22,7 23,6 24,1 27,8 31,3 17,7 36 65 81 1.012 1.018 1.024 ESE 6,3 62,8 16,0
08/2020 17,1 23,2 26,2 27,0 25,3 30,4 35,2 18,1 47 70 79 1.005 1.014 1.019 ESE 5,5 35,4 2,0
07/2020 19,5 22,7 25,1 26,4 27,2 29,7 32,2 12,7 57 73 80 1.012 1.017 1.021 ESE 5,4 33,8 11,2
06/2020 15,8 19,2 22,4 23,3 20,7 27,3 32,1 16,3 37 69 81 1.005 1.015 1.021 ESE 6,7 59,5 11,0
05/2020 13,2 16,8 20,6 21,1 19,6 25,5 33,4 20,2 49 67 79 1.006 1.017 1.028 E 6,5 56,3 31,0
04/2020 8,4 12,8 17,7 16,1 15,8 20,1 26,3 17,9 46 76 93 1.006 1.016 1.027 ESE 5,3 49,9 38,8
03/2020 6,1 10,8 15,7 14,2 10,7 18,1 24,3 18,2 43 70 92 1.007 1.018 1.027 NW 8,0 90,1 63,2
02/2020 6,1 10,1 14,4 14,7 15,0 20,5 26,3 20,2 47 70 89 1.014 1.025 1.033 W 4,8 53,1 1,6
01/2020 2,6 7,2 14,7 10,9 8,4 15,5 20,9 18,3 55 76 94 1.017 1.026 1.033 W 6,0 72,4 151,8
12/2019 5,4 10,8 17,9 13,8 13,1 17,6 24,6 19,2 53 70 92 1.002 1.019 1.033 WSW 8,6 93,3 76,6
11/2019 5,7 12,1 20,9 15,6 15,7 19,7 28,8 23,1 41 57 78 999 1.011 1.019 WSW 11,7 75,6 3,6
10/2019 11,8 16,4 20,5 20,3 16,1 25,1 34,9 23,1 42 67 83 1.008 1.017 1.022 WNW 5,5 51,5 25,0
09/2019 15,4 20,4 24,1 23,9 21,8 27,5 33,9 18,5 40 72 84 1.010 1.018 1.025 SSE 6,0 56,3 94,6
Tots els anys disponibles
2019 1,2 14,7 27,2 18,7 11,7 23,1 41,4 40,2 35 66 95 995 1.017 1.034 WSW 7,1 93,3 333,6
2018 2,4 14,7 25,6 18,5 8,7 22,7 36,2 33,8 40 68 93 993 1.016 1.033 S 6,8 88,8 812,8
2017 0,4 14,4 26,0 18,5 9,2 22,8 36,2 35,8 31 68 90 997 1.019 1.036 SSO 5,3 88,8 340,4
Temperatura (°C)
Humitat relativa (%)
Velocitat del vent i ràfega màxima (km/h)
Direcció del vent (°)
Pressió (hPa)
Precipitació (mm)
Nota sobre les dades: s'avisa a l'usuari de la provisionalitat i no oficialitat d'aquestes dades
Logo AVAMET blanc
Web allotjada a Sollutia
Llicència de Creative CommonsLa web d'AVAMET i els seus continguts estan subjectes a una llicència de
Reconeixement - No Comercial - Compartir igual
Últimes estacions: La Vilavella - Centre (Ajuntament Soci), Alfondeguilla (Soci), Santa Magdalena de Polpís (Soci),  Benafigos (Aj. Soci), Carlet - Ajuntament (Inforatge), Montroi (Inforatge), Bronchales (Limítrofe-Terol/Aj. Soci), Sueca - Muntanyeta dels Sants (Inforatge), Vilamarxant - Ajuntament (Aj. Soci/Inforatge) - - -